createdAt,value
2018-11-10T09:57:57.831Z,11.40
2018-11-10T10:00:27.692Z,11.07
2018-11-10T10:02:56.693Z,11.27
2018-11-10T10:05:25.409Z,11.57
2018-11-10T10:07:54.257Z,11.70
2018-11-10T10:10:22.928Z,11.50
2018-11-10T10:12:51.609Z,11.80
2018-11-10T10:15:20.486Z,12.07
2018-11-10T10:17:49.416Z,12.13
2018-11-10T10:20:19.307Z,11.97
2018-11-10T10:22:48.810Z,11.43
2018-11-10T10:25:18.267Z,11.83
2018-11-10T10:27:47.878Z,12.80
2018-11-10T10:30:19.213Z,11.80
2018-11-10T10:32:48.987Z,11.53
2018-11-10T10:35:17.933Z,12.47
2018-11-10T10:37:47.939Z,12.90
2018-11-10T10:40:16.994Z,12.30
2018-11-10T10:42:46.700Z,11.80
2018-11-10T10:45:20.209Z,12.87
2018-11-10T10:47:49.496Z,12.37
2018-11-10T10:50:19.505Z,12.07
2018-11-10T10:52:48.272Z,12.43
2018-11-10T10:55:18.175Z,12.00
2018-11-10T10:57:47.778Z,12.80
2018-11-10T11:00:22.041Z,12.07
2018-11-10T11:02:58.759Z,12.10
2018-11-10T11:05:37.189Z,12.93
2018-11-10T11:08:13.988Z,13.13
2018-11-10T11:10:43.096Z,11.03
2018-11-10T11:13:11.964Z,12.47
2018-11-10T11:15:40.562Z,12.97
2018-11-10T11:18:09.330Z,11.03
2018-11-10T11:20:37.988Z,12.73
2018-11-10T11:23:07.049Z,12.33
2018-11-10T11:25:35.869Z,12.73
2018-11-10T11:28:04.674Z,13.03
2018-11-10T11:30:33.654Z,12.80
2018-11-10T11:33:02.781Z,11.63
2018-11-10T11:35:32.412Z,12.37
2018-11-10T11:38:01.137Z,12.80
2018-11-10T11:40:29.819Z,12.47
2018-11-10T11:42:58.530Z,12.00
2018-11-10T11:45:27.275Z,12.43
2018-11-10T11:47:56.165Z,11.60
2018-11-10T11:50:25.052Z,11.17
2018-11-10T11:52:53.670Z,11.87
2018-11-10T11:55:22.421Z,12.67
2018-11-10T11:57:51.077Z,12.47
2018-11-10T12:00:20.787Z,10.97
2018-11-10T12:02:49.557Z,10.67
2018-11-10T12:05:18.572Z,11.80
2018-11-10T12:07:47.553Z,11.87
2018-11-10T12:10:17.176Z,10.87
2018-11-10T12:12:45.919Z,10.97
2018-11-10T12:15:15.995Z,11.10
2018-11-10T12:17:44.631Z,11.23
2018-11-10T12:20:14.934Z,10.80
2018-11-10T12:22:49.758Z,10.53
2018-11-10T12:25:18.376Z,10.37
2018-11-10T12:27:47.075Z,11.00
2018-11-10T12:30:16.065Z,10.90
2018-11-10T12:32:44.835Z,10.37
2018-11-10T12:35:14.462Z,10.60
2018-11-10T12:37:43.666Z,10.13
2018-11-10T12:40:13.500Z,10.13
2018-11-10T12:42:42.247Z,10.03
2018-11-10T12:45:12.265Z,10.60
2018-11-10T12:47:41.540Z,10.20
2018-11-10T12:50:14.243Z,9.87
2018-11-10T12:52:43.986Z,9.30
2018-11-10T12:55:14.290Z,10.10
2018-11-10T12:57:56.059Z,10.27
2018-11-10T13:00:25.477Z,10.63
2018-11-10T13:02:54.133Z,10.13
2018-11-10T13:05:22.909Z,10.03
2018-11-10T13:07:51.790Z,10.17
2018-11-10T13:10:20.602Z,10.53
2018-11-10T13:12:49.199Z,9.93
2018-11-10T13:15:18.329Z,10.00
2018-11-10T13:17:47.187Z,11.07
2018-11-10T13:20:17.224Z,10.30
2018-11-10T13:22:45.971Z,11.07
2018-11-10T13:25:15.304Z,11.37
2018-11-10T13:27:44.073Z,10.47
2018-11-10T13:30:14.361Z,10.47
2018-11-10T13:32:43.251Z,10.73
2018-11-10T13:35:12.728Z,10.20
2018-11-10T13:37:41.368Z,10.57
2018-11-10T13:40:10.896Z,10.20
2018-11-10T13:42:39.983Z,10.33
2018-11-10T13:45:10.724Z,10.47
2018-11-10T13:47:39.348Z,10.13
2018-11-10T13:50:09.812Z,10.53
2018-11-10T13:52:39.542Z,10.17
2018-11-10T13:55:08.085Z,11.27
2018-11-10T13:57:37.105Z,10.50
2018-11-10T14:00:08.231Z,11.03
2018-11-10T14:02:37.027Z,10.80
2018-11-10T14:05:06.011Z,10.67
2018-11-10T14:07:36.006Z,11.30
2018-11-10T14:10:05.232Z,12.30
2018-11-10T14:12:34.076Z,11.60
2018-11-10T14:15:02.811Z,10.77
2018-11-10T14:17:31.836Z,10.97
2018-11-10T14:20:00.798Z,10.50
2018-11-10T14:22:29.605Z,10.83
2018-11-10T14:24:58.705Z,11.23
2018-11-10T14:27:27.985Z,10.33
2018-11-10T14:29:56.934Z,11.33
2018-11-10T14:32:26.625Z,10.67
2018-11-10T14:34:55.572Z,10.80
2018-11-10T14:37:25.121Z,11.77
2018-11-10T14:39:55.064Z,10.67
2018-11-10T14:42:24.226Z,10.70
2018-11-10T14:44:53.016Z,9.97
2018-11-10T14:47:21.804Z,10.37
2018-11-10T14:49:50.650Z,10.13
2018-11-10T14:52:19.670Z,10.70
2018-11-10T14:54:48.349Z,10.00
2018-11-10T14:57:17.304Z,9.53
2018-11-10T14:59:46.231Z,9.40
2018-11-10T15:02:15.155Z,10.00
2018-11-10T15:04:44.154Z,9.17
2018-11-10T15:07:13.211Z,9.20
2018-11-10T15:09:42.075Z,9.43
2018-11-10T15:12:10.932Z,10.30
2018-11-10T15:14:39.673Z,10.40
2018-11-10T15:17:08.513Z,9.23
2018-11-10T15:19:37.211Z,9.50
2018-11-10T15:22:06.806Z,9.87
2018-11-10T15:24:35.557Z,9.90
2018-11-10T15:27:04.391Z,9.67
2018-11-10T15:29:33.271Z,9.57
2018-11-10T15:32:02.055Z,9.43
2018-11-10T15:34:30.898Z,9.67
2018-11-10T15:36:59.681Z,9.93
2018-11-10T15:39:28.421Z,9.53
2018-11-10T15:41:57.479Z,9.20
2018-11-10T15:44:26.265Z,9.53
2018-11-10T15:46:55.145Z,9.53
2018-11-10T15:49:23.942Z,10.30
2018-11-10T15:51:52.732Z,10.20
2018-11-10T15:54:22.282Z,9.70
2018-11-10T15:56:51.375Z,9.50
2018-11-10T15:59:20.140Z,10.03
2018-11-10T16:01:50.001Z,10.00
2018-11-10T16:04:19.837Z,9.93
2018-11-10T16:06:49.826Z,9.87
2018-11-10T16:09:18.816Z,10.07
2018-11-10T16:11:48.160Z,9.93
2018-11-10T16:14:17.029Z,9.57
2018-11-10T16:16:45.745Z,9.43
2018-11-10T16:19:14.494Z,9.63
2018-11-10T16:21:43.608Z,10.60
2018-11-10T16:24:12.541Z,9.83
2018-11-10T16:26:41.366Z,11.23
2018-11-10T16:29:10.111Z,11.00
2018-11-10T16:31:38.988Z,10.73
2018-11-10T16:34:07.883Z,10.40
2018-11-10T16:36:36.592Z,11.27
2018-11-10T16:39:07.193Z,10.70
2018-11-10T16:41:36.136Z,10.80
2018-11-10T16:44:04.885Z,10.47
2018-11-10T16:46:33.652Z,10.80
2018-11-10T16:49:02.323Z,10.60
2018-11-10T16:51:31.469Z,10.40
2018-11-10T16:54:00.208Z,10.97
2018-11-10T16:56:29.085Z,9.93
2018-11-10T16:58:57.972Z,10.43
2018-11-10T17:01:26.914Z,10.33
2018-11-10T17:03:55.819Z,11.00
2018-11-10T17:06:25.890Z,9.73
2018-11-10T17:08:54.698Z,9.97
2018-11-10T17:11:23.360Z,10.30
2018-11-10T17:13:52.140Z,11.23
2018-11-10T17:16:20.873Z,11.57
2018-11-10T17:18:49.897Z,11.53
2018-11-10T17:21:18.911Z,11.33
2018-11-10T17:23:47.991Z,10.97
2018-11-10T17:26:16.885Z,11.37
2018-11-10T17:28:45.743Z,11.40
2018-11-10T17:31:14.672Z,11.70
2018-11-10T17:33:43.717Z,11.47
2018-11-10T17:36:12.467Z,10.40
2018-11-10T17:38:41.286Z,11.30
2018-11-10T17:41:10.057Z,11.57
2018-11-10T17:43:38.691Z,11.00
2018-11-10T17:46:07.575Z,10.83
2018-11-10T17:48:36.517Z,11.20
2018-11-10T17:51:05.537Z,10.63
2018-11-10T17:53:34.364Z,10.53
2018-11-10T17:56:02.999Z,10.30
2018-11-10T17:58:31.713Z,9.87
2018-11-10T18:01:00.388Z,9.50
2018-11-10T18:03:35.838Z,10.40
2018-11-10T18:06:04.974Z,9.67
2018-11-10T18:08:33.817Z,9.23
2018-11-10T18:11:02.904Z,10.00
2018-11-10T18:13:31.672Z,10.07
2018-11-10T18:16:01.173Z,10.37
2018-11-10T18:18:29.963Z,10.57
2018-11-10T18:20:58.813Z,10.10
2018-11-10T18:23:27.688Z,9.47
2018-11-10T18:25:56.410Z,9.83
2018-11-10T18:28:25.022Z,11.43
2018-11-10T18:30:53.774Z,10.80
2018-11-10T18:33:22.664Z,9.53
2018-11-10T18:35:51.539Z,9.93
2018-11-10T18:38:20.344Z,10.07
2018-11-10T18:40:49.099Z,10.40
2018-11-10T18:43:17.820Z,10.43
2018-11-10T18:45:46.641Z,10.67
2018-11-10T18:48:15.764Z,10.03
2018-11-10T18:50:44.480Z,11.10
2018-11-10T18:53:13.900Z,10.33
2018-11-10T18:55:42.664Z,9.90
2018-11-10T18:58:11.675Z,10.27
2018-11-10T19:00:40.683Z,9.87
2018-11-10T19:03:09.300Z,10.50
2018-11-10T19:05:37.921Z,9.73
2018-11-10T19:08:06.720Z,10.00
2018-11-10T19:10:35.682Z,9.87
2018-11-10T19:13:04.619Z,11.07
2018-11-10T19:15:33.841Z,10.87
2018-11-10T19:18:02.480Z,10.77
2018-11-10T19:20:31.088Z,10.53
2018-11-10T19:22:59.793Z,10.77
2018-11-10T19:25:28.478Z,10.40
2018-11-10T19:27:57.214Z,10.67
2018-11-10T19:30:25.855Z,10.77
2018-11-10T19:32:54.623Z,10.90
2018-11-10T19:35:24.301Z,11.10
2018-11-10T19:37:53.110Z,12.23
2018-11-10T19:40:22.083Z,12.23
2018-11-10T19:42:51.673Z,11.60
2018-11-10T19:45:20.779Z,11.87
2018-11-10T19:47:49.409Z,11.17
2018-11-10T19:50:18.187Z,10.57
2018-11-10T19:52:46.811Z,11.10
2018-11-10T19:55:16.603Z,9.10
2018-11-10T19:57:45.548Z,9.50
2018-11-10T20:00:16.867Z,10.37
2018-11-10T20:02:45.640Z,11.30
2018-11-10T20:05:14.223Z,11.10
2018-11-10T20:07:42.897Z,11.80
2018-11-10T20:10:12.398Z,12.73
2018-11-10T20:12:41.565Z,13.73
2018-11-10T20:15:11.909Z,13.60
2018-11-10T20:17:41.169Z,12.97
2018-11-10T20:20:11.157Z,12.40
2018-11-10T20:22:40.146Z,13.70
2018-11-10T20:25:11.030Z,12.60
2018-11-10T20:27:40.021Z,12.53
2018-11-10T20:30:12.980Z,11.87
2018-11-10T20:32:41.638Z,10.80
2018-11-10T20:35:11.723Z,11.40
2018-11-10T20:37:41.249Z,11.37
2018-11-10T20:40:11.547Z,11.33
2018-11-10T20:42:40.445Z,12.00
2018-11-10T20:45:11.117Z,11.03
2018-11-10T20:47:40.458Z,10.70
2018-11-10T20:50:09.295Z,10.73
2018-11-10T20:52:38.530Z,11.30
2018-11-10T20:55:08.795Z,10.77
2018-11-10T20:57:38.086Z,11.77
2018-11-10T21:00:09.611Z,10.87
2018-11-10T21:02:39.018Z,11.23
2018-11-10T21:05:08.755Z,11.50
2018-11-10T21:07:37.393Z,11.93
2018-11-10T21:10:09.645Z,10.80
2018-11-10T21:12:38.819Z,11.67
2018-11-10T21:15:08.389Z,11.70
2018-11-10T21:17:37.450Z,12.07
2018-11-10T21:20:07.149Z,11.17
2018-11-10T21:22:35.853Z,10.40
2018-11-10T21:25:04.740Z,11.83
2018-11-10T21:27:33.642Z,10.50
2018-11-10T21:30:02.329Z,10.77
2018-11-10T21:32:30.910Z,11.23
2018-11-10T21:34:59.731Z,11.27
2018-11-10T21:37:28.483Z,11.30
2018-11-10T21:39:57.168Z,11.67
2018-11-10T21:42:25.872Z,11.87
2018-11-10T21:44:54.542Z,11.10
2018-11-10T21:47:23.103Z,11.47
2018-11-10T21:49:51.818Z,12.00
2018-11-10T21:52:20.462Z,11.40
2018-11-10T21:54:49.437Z,12.03
2018-11-10T21:57:18.221Z,11.07
2018-11-10T21:59:47.139Z,10.83
2018-11-10T22:02:15.942Z,11.33
2018-11-10T22:04:44.726Z,10.93
2018-11-10T22:07:13.477Z,11.30
2018-11-10T22:09:42.174Z,10.90
2018-11-10T22:12:10.848Z,10.77
2018-11-10T22:14:39.441Z,10.80
2018-11-10T22:17:08.129Z,10.80
2018-11-10T22:19:36.805Z,11.23
2018-11-10T22:22:05.788Z,10.30
2018-11-10T22:24:34.417Z,10.93
2018-11-10T22:27:03.014Z,10.50
2018-11-10T22:29:31.727Z,10.27
2018-11-10T22:32:00.483Z,10.00
2018-11-10T22:34:29.453Z,9.33
2018-11-10T22:36:58.097Z,9.87
2018-11-10T22:39:26.851Z,9.17
2018-11-10T22:41:55.469Z,9.80
2018-11-10T22:44:24.191Z,9.53
2018-11-10T22:46:52.928Z,9.73
2018-11-10T22:49:21.560Z,9.20
2018-11-10T22:51:50.446Z,8.87
2018-11-10T22:54:19.094Z,9.40
2018-11-10T22:56:47.689Z,9.60
2018-11-10T22:59:16.768Z,9.43
2018-11-10T23:01:45.399Z,8.83
2018-11-10T23:04:13.958Z,9.27
2018-11-10T23:06:42.722Z,10.20
2018-11-10T23:09:12.042Z,9.20
2018-11-10T23:11:40.754Z,9.07
2018-11-10T23:14:09.543Z,9.73
2018-11-10T23:16:38.259Z,9.53
2018-11-10T23:19:07.136Z,10.17
2018-11-10T23:21:35.815Z,9.97
2018-11-10T23:24:04.560Z,10.40
2018-11-10T23:26:33.250Z,9.10
2018-11-10T23:29:01.957Z,10.37
2018-11-10T23:31:30.636Z,10.23
2018-11-10T23:33:59.227Z,10.33
2018-11-10T23:36:27.852Z,10.17
2018-11-10T23:38:56.440Z,10.70
2018-11-10T23:41:25.830Z,10.63
2018-11-10T23:43:54.516Z,10.10
2018-11-10T23:46:23.275Z,10.83
2018-11-10T23:48:52.131Z,10.50
2018-11-10T23:51:20.682Z,10.77
2018-11-10T23:53:49.287Z,10.00
2018-11-10T23:56:17.867Z,10.87
2018-11-10T23:58:46.491Z,11.17
